Time;durP1;ratioP1;P1;durP2;ratioP2;P2;SDS_P1;SDS_P2;PMS_P1;PMS_P2;Temp;Humidity;BMP_temperature;BMP_pressure;BME280_temperature;BME280_humidity;BME280_pressure;Samples;Min_cycle;Max_cycle;Signal;HPM_P1;HPM_P2
2022/06/19 00:00:35;;;;;;;6.43;3.07;;;15.90;99.90;;;;;;5052364;28;20397;-70
2022/06/19 00:03:03;;;;;;;5.00;2.60;;;15.90;99.90;;;;;;5034663;28;21002;-72
2022/06/19 00:05:30;;;;;;;9.37;3.40;;;15.80;99.90;;;;;;5050527;28;20206;-68
2022/06/19 00:07:56;;;;;;;13.03;3.27;;;15.90;99.90;;;;;;5051331;28;20463;-70
2022/06/19 00:10:22;;;;;;;17.37;3.00;;;15.90;99.90;;;;;;5052421;28;20951;-68
2022/06/19 00:12:48;;;;;;;12.63;3.67;;;15.90;99.90;;;;;;5052239;28;20912;-68
2022/06/19 00:15:15;;;;;;;5.47;2.63;;;15.90;99.90;;;;;;5051682;28;20445;-72
2022/06/19 00:17:41;;;;;;;11.20;2.80;;;16.00;99.90;;;;;;5051512;28;20484;-68
2022/06/19 00:20:08;;;;;;;13.90;3.03;;;16.00;99.90;;;;;;5052229;28;20500;-72
2022/06/19 00:22:33;;;;;;;14.13;3.17;;;16.00;99.90;;;;;;5053214;28;20262;-69
2022/06/19 00:24:59;;;;;;;10.23;2.43;;;16.00;99.90;;;;;;5055765;28;20484;-68
2022/06/19 00:27:25;;;;;;;6.00;2.20;;;15.90;99.90;;;;;;5054864;28;20693;-72
2022/06/19 00:29:52;;;;;;;6.53;2.27;;;16.00;99.90;;;;;;5055660;28;20425;-72
2022/06/19 00:32:18;;;;;;;13.40;3.00;;;16.00;99.90;;;;;;5055437;28;20405;-68
2022/06/19 00:34:44;;;;;;;20.17;3.43;;;15.90;99.90;;;;;;5055044;28;20547;-68
2022/06/19 00:37:10;;;;;;;5.50;2.07;;;16.00;99.90;;;;;;5054767;28;20970;-68
2022/06/19 00:39:39;;;;;;;7.83;2.63;;;16.00;99.90;;;;;;5037145;28;20210;-68
2022/06/19 00:42:10;;;;;;;11.03;2.10;;;16.00;99.90;;;;;;5037553;28;20413;-72
2022/06/19 00:44:35;;;;;;;6.13;2.70;;;16.00;99.90;;;;;;5037532;28;20409;-72
2022/06/19 00:47:14;;;;;;;9.43;2.63;;;16.00;99.90;;;;;;5054536;28;20410;-68
2022/06/19 00:49:51;;;;;;;7.97;3.00;;;15.90;99.90;;;;;;5055268;28;20218;-72
2022/06/19 00:52:21;;;;;;;14.70;3.60;;;15.90;99.90;;;;;;5055102;28;20436;-72
2022/06/19 00:54:53;;;;;;;10.90;3.20;;;15.90;99.90;;;;;;5052854;28;20513;-72
2022/06/19 00:57:20;;;;;;;8.00;2.80;;;15.90;99.90;;;;;;5036190;28;20413;-68
2022/06/19 00:59:56;;;;;;;7.73;3.37;;;16.00;99.90;;;;;;5037228;28;20430;-72
2022/06/19 01:02:22;;;;;;;7.17;3.00;;;15.90;99.90;;;;;;5055279;28;20494;-72
2022/06/19 01:04:54;;;;;;;14.00;2.80;;;15.80;99.90;;;;;;5055059;28;20402;-72
2022/06/19 01:07:22;;;;;;;5.33;2.37;;;15.80;99.90;;;;;;5036115;28;20765;-72
2022/06/19 01:09:49;;;;;;;7.63;3.00;;;15.70;99.90;;;;;;5054984;28;20453;-72
2022/06/19 01:12:15;;;;;;;6.10;2.80;;;15.70;99.90;;;;;;5052444;28;20433;-68
2022/06/19 01:14:43;;;;;;;17.27;4.03;;;15.70;99.90;;;;;;5054869;28;20390;-68
2022/06/19 01:17:11;;;;;;;6.43;2.30;;;15.70;99.90;;;;;;5053898;28;20413;-71
2022/06/19 01:19:41;;;;;;;6.10;2.60;;;15.60;99.90;;;;;;5054752;28;20483;-68
2022/06/19 01:22:26;;;;;;;12.37;3.03;;;15.60;99.90;;;;;;5054841;28;20395;-68
2022/06/19 01:25:09;;;;;;;13.97;3.40;;;15.60;99.90;;;;;;5054822;28;20404;-68
2022/06/19 01:30:28;;;;;;;13.00;3.07;;;15.60;99.90;;;;;;5052912;28;20566;-69
2022/06/19 01:32:56;;;;;;;8.63;2.73;;;15.60;99.90;;;;;;5053870;28;20405;-71
2022/06/19 01:35:23;;;;;;;6.30;3.10;;;15.70;99.90;;;;;;5054476;28;20449;-69
2022/06/19 01:37:50;;;;;;;10.10;3.03;;;15.70;99.90;;;;;;5053803;28;20463;-72
2022/06/19 01:40:23;;;;;;;7.33;2.47;;;15.70;99.90;;;;;;5036525;28;20421;-72
2022/06/19 01:42:49;;;;;;;9.63;3.47;;;15.60;99.90;;;;;;5036489;28;20401;-67
2022/06/19 01:45:14;;;;;;;6.83;3.37;;;15.50;99.90;;;;;;5052470;28;20436;-71
2022/06/19 01:47:41;;;;;;;8.93;3.63;;;15.60;99.90;;;;;;5053307;28;20457;-67
2022/06/19 01:50:12;;;;;;;7.27;3.30;;;15.60;99.90;;;;;;5035941;28;20661;-69
2022/06/19 01:52:38;;;;;;;4.63;2.17;;;15.40;99.90;;;;;;5053826;28;20398;-70
2022/06/19 01:55:15;;;;;;;7.50;2.60;;;15.40;99.90;;;;;;5036548;28;20411;-71
2022/06/19 01:57:44;;;;;;;14.03;3.50;;;15.40;99.90;;;;;;5035246;28;20488;-66
2022/06/19 02:00:16;;;;;;;15.13;3.30;;;15.30;99.90;;;;;;5052194;28;20441;-66
2022/06/19 02:02:46;;;;;;;5.47;3.10;;;15.30;99.90;;;;;;5053900;28;20789;-71
2022/06/19 02:05:11;;;;;;;10.10;4.67;;;15.20;99.90;;;;;;5053881;28;20886;-70
2022/06/19 02:07:38;;;;;;;7.43;2.70;;;15.30;99.90;;;;;;5052839;28;20401;-68
2022/06/19 02:10:06;;;;;;;14.57;3.90;;;15.20;99.90;;;;;;5053146;28;20187;-72
2022/06/19 02:12:32;;;;;;;5.77;2.40;;;15.10;99.90;;;;;;5053898;28;20808;-68
2022/06/19 02:15:01;;;;;;;15.10;4.00;;;15.10;99.90;;;;;;5053729;28;20397;-73
2022/06/19 02:17:34;;;;;;;10.53;5.20;;;15.00;99.90;;;;;;5050817;28;20432;-68
2022/06/19 02:20:00;;;;;;;7.27;3.33;;;15.00;99.90;;;;;;5052817;28;20766;-72
2022/06/19 02:22:26;;;;;;;14.23;3.33;;;14.90;99.90;;;;;;5053673;28;20408;-72
2022/06/19 02:24:52;;;;;;;9.40;2.77;;;15.00;99.90;;;;;;5053462;28;20743;-72
2022/06/19 02:27:18;;;;;;;16.30;3.77;;;15.00;99.90;;;;;;5034353;28;20252;-72
2022/06/19 02:29:44;;;;;;;7.03;3.27;;;14.90;99.90;;;;;;5053337;28;20660;-73
2022/06/19 02:32:23;;;;;;;13.40;5.97;;;14.90;99.90;;;;;;5053361;28;20394;-68
2022/06/19 02:34:50;;;;;;;6.43;3.00;;;15.00;99.90;;;;;;5050943;28;20428;-73
2022/06/19 02:37:22;;;;;;;9.20;3.20;;;15.10;99.90;;;;;;5052467;28;20394;-69
2022/06/19 02:40:09;;;;;;;11.33;3.30;;;15.20;99.90;;;;;;5053111;28;20428;-68
2022/06/19 02:42:43;;;;;;;8.70;3.37;;;15.30;99.90;;;;;;5053274;28;20958;-69
2022/06/19 02:45:18;;;;;;;12.87;3.43;;;15.40;99.90;;;;;;5052695;28;20393;-71
2022/06/19 02:47:45;;;;;;;11.80;2.57;;;15.40;99.90;;;;;;5051640;28;20389;-72
2022/06/19 02:50:14;;;;;;;5.80;3.10;;;15.40;99.90;;;;;;5050679;28;20960;-69
2022/06/19 02:52:40;;;;;;;10.83;3.47;;;15.40;99.90;;;;;;5053115;28;20877;-72
2022/06/19 02:55:07;;;;;;;11.57;3.53;;;15.40;99.90;;;;;;5035472;28;20409;-72
2022/06/19 02:57:33;;;;;;;8.40;3.23;;;15.30;99.90;;;;;;5052377;28;20174;-68
2022/06/19 02:59:59;;;;;;;8.03;2.93;;;15.40;99.90;;;;;;5052807;28;20426;-68
2022/06/19 03:02:26;;;;;;;6.53;2.60;;;15.40;99.90;;;;;;5053183;28;20405;-68
2022/06/19 03:04:57;;;;;;;8.23;3.07;;;15.50;99.90;;;;;;5052787;28;20155;-68
2022/06/19 03:07:25;;;;;;;7.87;3.27;;;15.50;99.90;;;;;;5049628;28;20999;-68
2022/06/19 03:09:51;;;;;;;6.73;3.13;;;15.50;99.90;;;;;;5052891;28;20437;-72
2022/06/19 03:12:17;;;;;;;9.70;3.70;;;15.50;99.90;;;;;;5052860;28;20933;-72
2022/06/19 03:14:44;;;;;;;15.87;3.90;;;15.50;99.90;;;;;;5052857;28;20167;-72
2022/06/19 03:17:14;;;;;;;15.37;3.50;;;15.50;99.90;;;;;;5051963;28;20445;-72
2022/06/19 03:19:41;;;;;;;11.93;3.27;;;15.60;99.90;;;;;;5052845;28;20423;-72
2022/06/19 03:22:07;;;;;;;12.03;3.00;;;15.60;99.90;;;;;;5051568;28;20389;-72
2022/06/19 03:24:32;;;;;;;10.13;3.90;;;15.60;99.90;;;;;;5052199;28;20417;-71
2022/06/19 03:26:58;;;;;;;9.20;3.50;;;15.50;99.90;;;;;;5051934;28;20451;-72
2022/06/19 03:29:23;;;;;;;14.63;3.20;;;15.50;99.90;;;;;;5052725;28;20198;-73
2022/06/19 03:31:49;;;;;;;12.70;3.30;;;15.40;99.90;;;;;;5034945;28;20179;-67
2022/06/19 03:34:15;;;;;;;7.43;3.67;;;15.40;99.90;;;;;;5052533;28;20170;-72
2022/06/19 03:36:40;;;;;;;7.43;3.50;;;15.50;99.90;;;;;;5051763;28;20202;-68
2022/06/19 03:39:06;;;;;;;15.63;3.87;;;15.40;99.90;;;;;;5051701;28;20214;-68
2022/06/19 03:41:32;;;;;;;7.00;3.17;;;15.40;99.90;;;;;;5052051;28;20623;-73
2022/06/19 03:43:57;;;;;;;12.40;3.73;;;15.30;99.90;;;;;;5052635;28;20195;-72
2022/06/19 03:46:23;;;;;;;11.30;3.50;;;15.00;99.90;;;;;;5052338;28;20179;-72
2022/06/19 03:48:51;;;;;;;10.80;3.10;;;15.00;99.90;;;;;;5051703;28;20213;-68
2022/06/19 03:51:17;;;;;;;7.60;3.60;;;15.00;99.90;;;;;;5052605;28;20515;-69
2022/06/19 03:53:45;;;;;;;10.43;4.10;;;15.10;99.90;;;;;;5052641;28;20407;-72
2022/06/19 03:56:15;;;;;;;8.27;3.93;;;15.10;99.90;;;;;;5053204;28;20522;-69
2022/06/19 03:58:47;;;;;;;10.90;4.00;;;15.00;99.90;;;;;;5054734;28;20425;-68
2022/06/19 04:01:18;;;;;;;12.40;3.93;;;15.00;99.90;;;;;;5056272;28;20455;-66
2022/06/19 04:03:46;;;;;;;6.43;3.37;;;15.00;99.90;;;;;;5038754;28;20478;-72
2022/06/19 04:06:14;;;;;;;9.47;4.37;;;14.90;99.90;;;;;;5055936;28;20401;-70
2022/06/19 04:08:40;;;;;;;13.67;3.80;;;14.90;99.90;;;;;;5055269;28;20479;-66
2022/06/19 04:11:07;;;;;;;9.90;3.30;;;14.80;99.90;;;;;;5056222;28;20401;-70
2022/06/19 04:13:36;;;;;;;8.53;3.80;;;14.80;99.90;;;;;;5053125;28;20428;-66
2022/06/19 04:16:03;;;;;;;8.27;4.20;;;14.80;99.90;;;;;;5037661;28;21247;-68
2022/06/19 04:18:29;;;;;;;17.10;5.10;;;14.80;99.90;;;;;;5037126;28;20439;-66
2022/06/19 04:20:57;;;;;;;21.47;3.83;;;14.80;99.90;;;;;;5055863;28;20467;-70
2022/06/19 04:23:24;;;;;;;11.60;4.27;;;14.90;99.90;;;;;;5055805;28;20401;-70
2022/06/19 04:25:51;;;;;;;11.87;3.80;;;15.00;99.90;;;;;;5056014;28;20404;-68
2022/06/19 04:28:18;;;;;;;8.77;4.73;;;15.00;99.90;;;;;;5052872;28;20438;-68
2022/06/19 04:30:47;;;;;;;6.50;3.70;;;14.70;99.90;;;;;;5055601;28;20397;-72
2022/06/19 04:33:15;;;;;;;9.60;3.63;;;14.60;99.90;;;;;;5055064;28;20412;-71
2022/06/19 04:35:41;;;;;;;11.23;3.50;;;14.50;99.90;;;;;;5055669;28;20467;-66
2022/06/19 04:38:07;;;;;;;3.70;1.87;;;14.40;99.90;;;;;;5054631;28;20468;-72
2022/06/19 04:40:36;;;;;;;5.67;3.03;;;14.40;99.90;;;;;;5037887;28;20414;-68
2022/06/19 04:43:03;;;;;;;6.77;2.00;;;14.30;99.90;;;;;;5055497;28;20171;-68
2022/06/19 04:45:29;;;;;;;5.60;2.80;;;14.30;99.90;;;;;;5054350;28;20448;-72
2022/06/19 04:47:54;;;;;;;4.10;2.63;;;14.20;99.90;;;;;;5036525;28;20380;-71
2022/06/19 04:50:20;;;;;;;4.00;2.47;;;14.20;99.90;;;;;;5052908;28;21209;-69
2022/06/19 04:52:46;;;;;;;3.97;2.83;;;14.10;99.90;;;;;;5054751;28;20167;-69
2022/06/19 04:55:12;;;;;;;2.63;2.20;;;14.10;99.90;;;;;;5055162;28;20567;-71
2022/06/19 04:57:38;;;;;;;5.27;2.57;;;14.10;99.90;;;;;;5054414;28;20167;-72
2022/06/19 05:00:07;;;;;;;3.83;2.10;;;14.20;99.90;;;;;;5055138;28;20475;-68
2022/06/19 05:02:33;;;;;;;5.60;2.47;;;14.20;99.90;;;;;;5055122;28;20520;-69
2022/06/19 05:04:59;;;;;;;7.87;2.60;;;14.20;99.90;;;;;;5054035;28;20411;-71
2022/06/19 05:07:25;;;;;;;5.20;2.40;;;14.30;99.90;;;;;;5053455;28;20372;-73
2022/06/19 05:09:51;;;;;;;5.03;2.20;;;14.30;99.90;;;;;;5054279;28;20418;-68
2022/06/19 05:12:17;;;;;;;7.43;3.00;;;14.30;99.90;;;;;;5054963;28;20616;-72
2022/06/19 05:14:42;;;;;;;2.80;2.10;;;14.30;99.90;;;;;;5054888;28;20163;-72
2022/06/19 05:17:08;;;;;;;6.53;3.13;;;14.50;99.90;;;;;;5053888;28;20205;-71
2022/06/19 05:19:34;;;;;;;2.40;2.10;;;14.50;99.90;;;;;;5053501;28;20611;-68
2022/06/19 05:22:00;;;;;;;8.93;3.50;;;14.50;99.90;;;;;;5054102;28;20190;-69
2022/06/19 05:24:26;;;;;;;5.37;2.27;;;14.50;99.90;;;;;;5054736;28;20163;-69
2022/06/19 05:26:52;;;;;;;2.73;2.10;;;14.40;99.90;;;;;;5053626;28;20394;-72
2022/06/19 05:29:19;;;;;;;2.87;2.13;;;14.20;99.90;;;;;;5054193;28;20278;-71
2022/06/19 05:31:44;;;;;;;3.83;2.60;;;14.00;99.90;;;;;;5054792;28;20384;-71
2022/06/19 05:34:10;;;;;;;5.03;2.57;;;13.60;99.90;;;;;;5054512;28;20916;-70
2022/06/19 05:36:36;;;;;;;4.33;2.57;;;13.60;99.90;;;;;;5051669;28;21182;-70
2022/06/19 05:39:02;;;;;;;7.13;2.30;;;13.70;99.90;;;;;;5054324;28;20198;-71
2022/06/19 05:41:30;;;;;;;4.33;2.50;;;13.80;99.90;;;;;;5054389;28;20746;-71
2022/06/19 05:43:56;;;;;;;4.17;2.73;;;13.80;99.90;;;;;;5054255;28;20401;-72
2022/06/19 05:46:22;;;;;;;5.40;3.60;;;13.90;99.90;;;;;;5053553;28;20414;-76
2022/06/19 05:48:49;;;;;;;6.43;2.67;;;14.00;99.90;;;;;;5053412;28;20451;-70
2022/06/19 05:51:19;;;;;;;5.00;2.77;;;14.00;99.90;;;;;;5052566;28;20425;-71
2022/06/19 05:53:48;;;;;;;2.90;2.33;;;13.90;99.90;;;;;;5053388;28;20502;-71
2022/06/19 05:56:14;;;;;;;4.93;3.17;;;13.90;99.90;;;;;;5053271;28;20449;-69
2022/06/19 05:58:41;;;;;;;3.20;2.67;;;13.80;99.90;;;;;;5051910;28;20444;-70
2022/06/19 06:01:08;;;;;;;11.97;3.70;;;13.80;99.90;;;;;;5054916;28;20774;-70
2022/06/19 06:03:34;;;;;;;7.80;3.60;;;13.80;99.90;;;;;;5053227;28;20455;-72
2022/06/19 06:06:07;;;;;;;5.50;2.53;;;13.80;99.90;;;;;;5053973;28;20406;-73
2022/06/19 06:08:36;;;;;;;4.30;3.60;;;13.80;99.90;;;;;;5052930;28;20421;-72
2022/06/19 06:11:02;;;;;;;6.60;2.60;;;13.80;99.90;;;;;;5036293;28;20930;-72
2022/06/19 06:13:29;;;;;;;7.50;3.20;;;13.80;99.90;;;;;;5051759;28;20903;-73
2022/06/19 06:15:55;;;;;;;5.63;3.43;;;13.70;99.90;;;;;;5053597;28;20416;-73
2022/06/19 06:18:21;;;;;;;4.83;3.47;;;13.70;99.90;;;;;;5034393;28;20442;-72
2022/06/19 06:20:58;;;;;;;3.30;3.00;;;13.50;99.90;;;;;;5035360;28;20421;-74
2022/06/19 06:23:24;;;;;;;8.13;3.53;;;13.30;99.90;;;;;;5035603;28;20177;-72
2022/06/19 06:26:12;;;;;;;5.50;2.63;;;13.30;99.90;;;;;;5053591;28;20392;-73
2022/06/19 06:28:41;;;;;;;4.13;3.07;;;13.10;1.00;;;;;;5034835;28;20433;-73
2022/06/19 06:31:07;;;;;;;11.03;2.90;;;13.10;1.00;;;;;;5051640;28;20415;-76
2022/06/19 06:33:33;;;;;;;3.20;2.60;;;13.00;1.00;;;;;;5035380;28;20482;-73
2022/06/19 06:36:00;;;;;;;3.23;2.93;;;13.10;1.00;;;;;;5051602;28;20524;-72
2022/06/19 06:38:26;;;;;;;3.80;2.90;;;13.20;1.00;;;;;;5052258;28;20993;-72
2022/06/19 06:40:52;;;;;;;7.50;3.40;;;13.10;1.00;;;;;;5034871;28;20413;-74
2022/06/19 06:43:19;;;;;;;2.90;2.27;;;13.00;1.00;;;;;;5036165;28;20752;-73
2022/06/19 06:45:45;;;;;;;9.03;4.07;;;12.90;1.00;;;;;;5035513;28;20796;-72
2022/06/19 06:48:11;;;;;;;6.27;3.33;;;12.80;1.00;;;;;;5052168;28;20507;-75
2022/06/19 06:50:38;;;;;;;6.60;2.93;;;12.80;1.00;;;;;;5035243;28;20202;-72
2022/06/19 06:53:04;;;;;;;3.63;3.33;;;12.80;1.00;;;;;;5053253;28;20416;-72
2022/06/19 06:55:30;;;;;;;5.30;3.40;;;12.90;1.00;;;;;;5050910;28;20475;-73
2022/06/19 06:57:56;;;;;;;14.63;3.53;;;12.90;1.00;;;;;;5033882;28;20424;-72
2022/06/19 07:00:23;;;;;;;11.80;3.80;;;12.90;1.00;;;;;;5053152;28;20175;-75
2022/06/19 07:02:50;;;;;;;7.50;3.23;;;12.90;1.00;;;;;;5035176;28;20194;-75
2022/06/19 07:05:17;;;;;;;13.93;3.57;;;12.90;12.50;;;;;;5053012;28;20877;-72
2022/06/19 07:07:42;;;;;;;5.47;3.23;;;13.00;35.10;;;;;;5052015;28;20384;-72
2022/06/19 07:10:09;;;;;;;5.07;2.77;;;13.10;77.00;;;;;;5052809;28;20407;-74
2022/06/19 07:12:35;;;;;;;13.63;3.60;;;13.00;72.40;;;;;;5033765;28;20179;-72
2022/06/19 07:15:00;;;;;;;5.90;3.10;;;13.10;82.80;;;;;;5033466;28;20408;-72
2022/06/19 07:17:27;;;;;;;5.60;2.70;;;13.10;83.30;;;;;;5032601;28;20189;-73
2022/06/19 07:19:52;;;;;;;9.40;2.43;;;13.20;99.10;;;;;;5052869;28;20189;-73
2022/06/19 07:22:18;;;;;;;7.30;3.00;;;13.10;99.30;;;;;;5035215;28;20388;-71
2022/06/19 07:24:46;;;;;;;8.70;2.60;;;13.10;99.90;;;;;;5052834;28;20167;-72
2022/06/19 07:27:13;;;;;;;7.57;2.50;;;13.10;99.90;;;;;;5051980;28;20380;-73
2022/06/19 07:29:44;;;;;;;6.93;2.50;;;13.20;99.90;;;;;;5034204;28;20453;-73
2022/06/19 07:32:12;;;;;;;6.27;3.27;;;13.30;99.90;;;;;;5038816;28;20757;-71
2022/06/19 07:34:39;;;;;;;23.77;4.40;;;13.30;99.90;;;;;;5056237;28;20409;-73
2022/06/19 07:37:06;;;;;;;3.47;2.47;;;13.50;99.90;;;;;;5055759;28;20460;-73
2022/06/19 07:39:33;;;;;;;5.80;3.17;;;13.60;99.90;;;;;;5056598;28;20475;-72
2022/06/19 07:42:00;;;;;;;7.60;3.03;;;13.70;99.90;;;;;;5039011;28;20440;-74
2022/06/19 07:44:25;;;;;;;7.23;3.93;;;13.80;99.90;;;;;;5036811;28;20479;-72
2022/06/19 07:52:21;;;;;;;5.03;2.40;;;14.50;99.90;;;;;;5055924;28;20916;-75
2022/06/19 07:54:47;;;;;;;8.80;2.90;;;14.40;99.90;;;;;;5056430;28;20459;-72
2022/06/19 07:57:13;;;;;;;5.83;2.60;;;14.20;99.90;;;;;;5037645;28;20439;-74
2022/06/19 07:59:39;;;;;;;9.53;3.40;;;14.20;99.90;;;;;;5056219;28;20400;-74
2022/06/19 08:02:05;;;;;;;4.30;2.57;;;14.30;99.90;;;;;;5054456;28;20261;-74
2022/06/19 08:04:30;;;;;;;3.90;2.50;;;14.20;99.90;;;;;;5056125;28;20171;-71
2022/06/19 08:06:56;;;;;;;11.93;2.87;;;14.10;99.90;;;;;;5037724;28;20186;-75
2022/06/19 08:09:21;;;;;;;9.33;3.00;;;14.20;99.90;;;;;;5038517;28;20728;-72
2022/06/19 08:11:47;;;;;;;8.53;2.80;;;14.10;99.90;;;;;;5055566;28;20166;-71
2022/06/19 08:14:13;;;;;;;2.50;2.30;;;13.90;99.90;;;;;;5055991;28;20167;-73
2022/06/19 08:16:39;;;;;;;6.30;3.07;;;13.90;99.90;;;;;;5054004;28;20194;-71
2022/06/19 08:19:04;;;;;;;12.37;3.03;;;13.90;99.90;;;;;;5055827;28;20442;-74
2022/06/19 08:21:30;;;;;;;5.70;2.67;;;13.80;99.90;;;;;;5037931;28;20167;-71
2022/06/19 08:23:56;;;;;;;10.90;2.97;;;13.90;99.90;;;;;;5055921;28;20489;-74
2022/06/19 08:26:22;;;;;;;7.37;2.90;;;13.80;99.90;;;;;;5055498;28;20235;-74
2022/06/19 08:29:00;;;;;;;10.03;3.10;;;13.90;99.90;;;;;;5037249;28;20224;-73
2022/06/19 08:31:27;;;;;;;6.80;2.43;;;13.80;99.90;;;;;;5054399;28;20189;-71
2022/06/19 08:33:53;;;;;;;7.13;2.60;;;13.80;99.90;;;;;;5054076;28;20407;-71
2022/06/19 08:36:20;;;;;;;18.93;3.17;;;13.80;99.90;;;;;;5055189;28;20423;-72
2022/06/19 08:38:49;;;;;;;5.53;2.77;;;13.90;99.90;;;;;;5054767;28;20191;-73
2022/06/19 08:41:33;;;;;;;14.30;3.07;;;14.00;99.90;;;;;;5054898;28;20467;-70
2022/06/19 08:44:14;;;;;;;7.00;3.00;;;14.10;99.90;;;;;;5055603;28;20376;-70
2022/06/19 08:46:55;;;;;;;5.10;2.50;;;14.10;99.90;;;;;;5053266;28;20399;-70
2022/06/19 08:49:59;;;;;;;5.87;3.03;;;14.10;99.90;;;;;;5054727;28;21001;-72
2022/06/19 08:52:29;;;;;;;10.50;2.37;;;14.20;99.90;;;;;;5055264;28;20415;-70
2022/06/19 08:55:13;;;;;;;13.37;2.90;;;14.20;99.90;;;;;;5055259;28;20489;-74
2022/06/19 08:57:41;;;;;;;8.03;3.00;;;14.20;99.90;;;;;;5054443;28;20433;-74
2022/06/19 09:00:42;;;;;;;6.60;2.00;;;14.20;99.90;;;;;;5037461;28;20430;-71
2022/06/19 09:03:17;;;;;;;3.30;2.67;;;14.20;99.90;;;;;;5035876;28;20421;-71
2022/06/19 09:06:09;;;;;;;6.00;2.57;;;14.20;99.90;;;;;;5055063;28;20406;-74
2022/06/19 09:09:09;;;;;;;3.73;2.00;;;14.20;99.90;;;;;;5036136;28;20430;-73
2022/06/19 09:12:19;;;;;;;6.67;2.43;;;14.30;99.90;;;;;;5036367;28;20404;-73
2022/06/19 09:15:16;;;;;;;2.13;1.93;;;14.40;99.90;;;;;;5053919;28;20475;-74
2022/06/19 09:18:04;;;;;;;11.13;2.53;;;14.40;99.90;;;;;;5053861;28;20905;-71
2022/06/19 09:20:39;;;;;;;6.00;2.90;;;14.50;99.90;;;;;;5054901;28;20400;-74
2022/06/19 09:23:29;;;;;;;3.57;2.30;;;14.60;99.90;;;;;;5054656;28;20432;-71
2022/06/19 09:26:17;;;;;;;6.00;2.37;;;14.60;99.90;;;;;;5054273;28;20416;-70
2022/06/19 09:28:51;;;;;;;4.90;2.00;;;14.70;99.90;;;;;;5053019;28;20423;-71
2022/06/19 09:31:42;;;;;;;6.40;2.80;;;15.00;99.90;;;;;;5036748;28;20773;-68
2022/06/19 09:34:22;;;;;;;8.60;2.63;;;15.10;99.90;;;;;;5054606;28;20401;-74
2022/06/19 09:36:55;;;;;;;5.20;2.57;;;15.00;99.90;;;;;;5053510;28;20441;-70
2022/06/19 09:39:35;;;;;;;10.97;3.83;;;15.20;99.90;;;;;;5054404;28;20567;-67
2022/06/19 09:42:10;;;;;;;5.10;2.83;;;15.40;99.90;;;;;;5035715;28;20429;-67
2022/06/19 09:44:44;;;;;;;4.53;2.40;;;15.30;99.90;;;;;;5054223;28;20404;-67
2022/06/19 09:47:16;;;;;;;5.97;2.70;;;15.30;99.90;;;;;;5035357;28;20412;-72
2022/06/19 09:49:50;;;;;;;10.03;2.40;;;15.30;99.90;;;;;;5036391;28;20449;-69
2022/06/19 09:52:41;;;;;;;4.23;2.63;;;15.20;99.90;;;;;;5036300;28;20502;-69
2022/06/19 09:55:17;;;;;;;13.13;3.20;;;15.30;99.90;;;;;;5053116;28;20793;-69
2022/06/19 09:58:02;;;;;;;3.50;2.40;;;15.20;99.90;;;;;;5053284;28;20481;-69
2022/06/19 10:00:33;;;;;;;3.30;2.67;;;15.30;99.90;;;;;;5054133;28;20437;-70
2022/06/19 10:03:21;;;;;;;8.37;3.40;;;15.20;99.90;;;;;;5035645;28;20401;-67
2022/06/19 10:06:01;;;;;;;6.83;2.80;;;15.20;99.90;;;;;;5053975;28;20446;-69
2022/06/19 10:08:43;;;;;;;6.97;3.10;;;15.00;99.90;;;;;;5052844;28;20420;-69
2022/06/19 10:11:23;;;;;;;7.73;3.30;;;15.20;99.90;;;;;;5035039;28;20834;-69
2022/06/19 10:13:55;;;;;;;6.33;3.00;;;15.20;99.90;;;;;;5053870;28;20402;-67
2022/06/19 10:16:31;;;;;;;3.60;2.20;;;15.20;99.90;;;;;;5035441;28;20543;-68
2022/06/19 10:18:58;;;;;;;6.53;3.20;;;15.30;99.90;;;;;;5053666;28;20405;-67
2022/06/19 10:24:29;;;;;;;9.30;3.20;;;15.50;99.90;;;;;;5052964;28;20439;-67
2022/06/19 10:27:23;;;;;;;5.03;2.90;;;15.70;99.90;;;;;;5052634;28;20417;-73
2022/06/19 10:30:14;;;;;;;4.73;3.00;;;15.80;99.90;;;;;;5034686;28;20453;-72
2022/06/19 10:33:09;;;;;;;4.23;2.73;;;16.00;99.90;;;;;;5035550;28;20417;-70
2022/06/19 10:35:58;;;;;;;8.60;2.97;;;16.10;99.90;;;;;;5035483;28;20465;-67
2022/06/19 10:39:01;;;;;;;8.63;2.73;;;16.20;99.90;;;;;;5052375;28;20430;-68
2022/06/19 10:42:07;;;;;;;5.57;3.03;;;16.20;99.90;;;;;;5053069;28;20742;-68
2022/06/19 10:44:51;;;;;;;11.10;3.53;;;16.20;99.90;;;;;;5051722;28;20428;-69
2022/06/19 10:47:43;;;;;;;7.00;3.90;;;16.00;99.90;;;;;;5052239;28;20412;-74
2022/06/19 10:50:35;;;;;;;2.93;2.53;;;15.90;99.90;;;;;;5037017;28;20942;-74
2022/06/19 10:53:26;;;;;;;11.50;3.30;;;15.90;99.90;;;;;;5035105;28;20794;-74
2022/06/19 10:56:12;;;;;;;4.47;2.67;;;15.70;99.90;;;;;;5052961;28;20453;-69
2022/06/19 10:58:38;;;;;;;6.00;2.40;;;15.70;99.90;;;;;;5052300;28;20486;-69
2022/06/19 11:01:08;;;;;;;4.60;2.43;;;15.60;99.90;;;;;;5051060;28;20429;-74
2022/06/19 11:04:08;;;;;;;7.00;2.70;;;15.40;99.90;;;;;;5052805;28;20167;-70
2022/06/19 11:06:45;;;;;;;8.33;2.83;;;15.30;99.90;;;;;;5051843;28;20403;-74
2022/06/19 11:09:19;;;;;;;4.17;2.50;;;15.40;99.90;;;;;;5034970;28;20522;-69
2022/06/19 11:11:47;;;;;;;7.43;2.70;;;15.30;99.90;;;;;;5052745;28;20406;-73
2022/06/19 11:14:29;;;;;;;2.90;2.50;;;15.20;99.90;;;;;;5052730;28;20412;-73
2022/06/19 11:17:07;;;;;;;7.93;2.80;;;15.30;99.90;;;;;;5032979;28;20507;-74
2022/06/19 11:19:41;;;;;;;4.47;2.60;;;15.30;99.90;;;;;;5051219;28;20963;-73
2022/06/19 11:22:39;;;;;;;8.50;2.60;;;15.30;99.90;;;;;;5052481;28;20405;-68
2022/06/19 11:25:23;;;;;;;3.00;2.10;;;15.30;99.90;;;;;;5052644;28;20405;-69
2022/06/19 11:28:01;;;;;;;5.23;2.73;;;15.30;99.90;;;;;;5051792;28;20409;-73
2022/06/19 11:30:37;;;;;;;2.73;2.47;;;15.20;99.90;;;;;;5052681;28;20414;-68
2022/06/19 11:33:09;;;;;;;5.50;2.57;;;15.00;99.90;;;;;;5033792;28;20535;-73
2022/06/19 11:35:48;;;;;;;2.63;2.37;;;15.00;99.90;;;;;;5052609;28;20802;-72
2022/06/19 11:38:17;;;;;;;8.40;2.37;;;14.90;99.90;;;;;;5051069;28;20913;-68
2022/06/19 11:40:49;;;;;;;3.80;2.33;;;14.90;99.90;;;;;;5052744;28;20763;-68
2022/06/19 11:43:35;;;;;;;3.13;2.10;;;14.90;99.90;;;;;;5052742;28;20512;-73
2022/06/19 11:46:13;;;;;;;3.13;2.20;;;14.80;99.90;;;;;;5052295;28;20422;-70
2022/06/19 11:48:39;;;;;;;5.33;1.80;;;14.70;99.90;;;;;;5050511;28;20500;-68
2022/06/19 11:51:23;;;;;;;3.20;2.20;;;14.70;99.90;;;;;;5052574;28;20437;-73
2022/06/19 11:53:57;;;;;;;5.10;2.67;;;14.70;99.90;;;;;;5052641;28;20179;-68
2022/06/19 11:56:33;;;;;;;4.07;2.87;;;14.80;99.90;;;;;;5051831;28;20457;-73
2022/06/19 11:59:03;;;;;;;6.60;3.00;;;14.80;99.90;;;;;;5052287;28;20413;-68
2022/06/19 12:01:41;;;;;;;2.67;1.60;;;14.80;99.90;;;;;;5052526;28;20405;-68
2022/06/19 12:04:21;;;;;;;7.00;1.90;;;14.80;99.90;;;;;;5034450;28;20888;-68
2022/06/19 12:06:55;;;;;;;4.17;2.20;;;14.80;99.90;;;;;;5050367;28;20453;-73
2022/06/19 12:09:39;;;;;;;6.50;2.87;;;15.00;99.90;;;;;;5034322;28;20441;-67
2022/06/19 12:12:16;;;;;;;4.40;2.73;;;15.10;99.90;;;;;;5052320;28;20444;-69
2022/06/19 12:14:48;;;;;;;3.33;2.00;;;15.10;99.90;;;;;;5052440;28;20416;-72
2022/06/19 12:17:16;;;;;;;6.03;2.63;;;15.00;99.90;;;;;;5035750;28;20807;-73
2022/06/19 12:20:08;;;;;;;3.07;2.77;;;14.90;99.90;;;;;;5055795;28;20424;-67
2022/06/19 12:22:50;;;;;;;2.33;2.23;;;14.90;99.90;;;;;;5026350;28;20486;-73
2022/06/19 12:25:25;;;;;;;2.73;2.23;;;14.90;99.90;;;;;;5050037;28;20433;-67
2022/06/19 12:28:12;;;;;;;3.33;2.40;;;15.00;99.90;;;;;;5054996;28;20400;-67
2022/06/19 12:30:53;;;;;;;3.13;2.80;;;14.90;99.90;;;;;;5037876;28;20413;-71
2022/06/19 12:33:40;;;;;;;2.37;1.90;;;15.00;99.90;;;;;;5055813;28;20451;-71
2022/06/19 12:36:10;;;;;;;3.43;1.90;;;14.90;99.90;;;;;;5037162;28;20865;-68
2022/06/19 12:38:37;;;;;;;3.70;2.13;;;14.70;99.90;;;;;;5053686;28;20833;-73
2022/06/19 12:41:27;;;;;;;4.87;2.30;;;14.60;99.90;;;;;;5055586;28;20397;-73
2022/06/19 12:44:06;;;;;;;2.10;2.00;;;14.50;99.90;;;;;;5055577;28;20500;-67
2022/06/19 12:47:03;;;;;;;2.47;2.37;;;14.50;99.90;;;;;;5054551;28;20416;-73
2022/06/19 12:50:06;;;;;;;2.90;2.03;;;14.50;99.90;;;;;;5052498;28;20468;-68
2022/06/19 12:52:50;;;;;;;2.40;2.17;;;14.50;99.90;;;;;;5019234;28;20449;-74
2022/06/19 12:55:32;;;;;;;2.70;1.80;;;14.40;99.90;;;;;;5035450;28;20418;-74
2022/06/19 12:58:07;;;;;;;6.43;2.30;;;14.40;99.90;;;;;;5016717;28;20958;-67
2022/06/19 13:01:02;;;;;;;2.33;1.90;;;14.40;99.90;;;;;;5035271;28;20484;-72
2022/06/19 13:03:41;;;;;;;2.90;2.10;;;14.30;99.90;;;;;;5032927;28;20427;-73
2022/06/19 13:06:31;;;;;;;4.97;3.07;;;14.30;99.90;;;;;;5017440;28;20476;-67
2022/06/19 13:08:59;;;;;;;1.97;1.87;;;14.30;99.90;;;;;;5044179;28;20500;-73
2022/06/19 13:11:32;;;;;;;3.13;2.40;;;14.30;99.90;;;;;;5037767;28;20929;-71
2022/06/19 13:14:04;;;;;;;2.23;2.07;;;14.30;99.90;;;;;;5055103;28;20863;-67
2022/06/19 13:16:44;;;;;;;1.80;1.70;;;14.30;99.90;;;;;;5053941;28;21129;-70
2022/06/19 13:19:30;;;;;;;3.90;2.20;;;14.30;99.90;;;;;;5054850;28;20817;-67
2022/06/19 13:22:01;;;;;;;4.40;4.00;;;14.40;99.90;;;;;;5036819;28;20922;-67